Time;durP1;ratioP1;P1;durP2;ratioP2;P2;SDS_P1;SDS_P2;PMS_P1;PMS_P2;Temp;Humidity;BMP_temperature;BMP_pressure;BME280_temperature;BME280_humidity;BME280_pressure;Samples;Min_cycle;Max_cycle;Signal;HPM_P1;HPM_P2
2022/09/17 00:02:01;;;;;;;13.95;2.75;;;;;;;;;;4994339;28;93363;-66
2022/09/17 00:04:28;;;;;;;19.60;2.50;;;;;;;;;;4997204;28;93213;-66
2022/09/17 00:06:54;;;;;;;20.40;2.60;;;;;;;;;;4996320;28;92404;-66
2022/09/17 00:09:20;;;;;;;13.55;2.53;;;;;;;;;;4992522;28;92450;-67
2022/09/17 00:11:46;;;;;;;18.58;2.40;;;;;;;;;;5006119;28;93809;-67
2022/09/17 00:14:14;;;;;;;23.15;3.38;;;;;;;;;;4987346;28;93206;-66
2022/09/17 00:16:42;;;;;;;15.90;2.83;;;;;;;;;;5026417;27;93680;-66
2022/09/17 00:19:13;;;;;;;17.38;3.33;;;;;;;;;;4998006;28;92435;-66
2022/09/17 00:21:40;;;;;;;13.93;2.40;;;;;;;;;;4992413;28;95000;-66
2022/09/17 00:24:07;;;;;;;12.82;2.45;;;;;;;;;;4991944;28;93459;-66
2022/09/17 00:26:34;;;;;;;18.35;2.42;;;;;;;;;;4994649;28;92651;-68
2022/09/17 00:29:00;;;;;;;9.98;2.58;;;;;;;;;;4997181;28;93307;-66
2022/09/17 00:31:27;;;;;;;17.02;2.58;;;;;;;;;;4989408;28;92484;-66
2022/09/17 00:33:54;;;;;;;17.65;2.80;;;;;;;;;;4991159;28;92613;-66
2022/09/17 00:36:20;;;;;;;17.80;2.65;;;;;;;;;;4989594;28;97189;-66
2022/09/17 00:38:48;;;;;;;16.15;3.78;;;;;;;;;;4995177;28;91710;-66
2022/09/17 00:41:14;;;;;;;21.73;2.80;;;;;;;;;;4994007;28;92778;-66
2022/09/17 00:43:43;;;;;;;11.05;2.00;;;;;;;;;;5026539;28;93256;-66
2022/09/17 00:46:15;;;;;;;14.80;2.47;;;;;;;;;;5013956;27;94922;-66
2022/09/17 00:48:42;;;;;;;19.83;2.83;;;;;;;;;;4979641;28;95770;-66
2022/09/17 00:51:09;;;;;;;24.75;3.83;;;;;;;;;;4990784;28;93536;-66
2022/09/17 00:53:36;;;;;;;17.60;2.95;;;;;;;;;;4994511;28;93207;-66
2022/09/17 00:56:08;;;;;;;16.30;3.05;;;;;;;;;;4993977;28;93435;-66
2022/09/17 00:58:35;;;;;;;16.63;2.40;;;;;;;;;;5026192;28;92430;-66
2022/09/17 01:01:06;;;;;;;14.07;2.30;;;;;;;;;;4993521;28;93849;-66
2022/09/17 01:03:33;;;;;;;15.88;3.25;;;;;;;;;;4998984;28;92601;-66
2022/09/17 01:06:05;;;;;;;15.23;2.55;;;;;;;;;;4994947;28;92530;-66
2022/09/17 01:08:52;;;;;;;21.83;2.92;;;;;;;;;;4993376;28;94508;-67
2022/09/17 01:11:38;;;;;;;16.55;2.28;;;;;;;;;;4970358;28;97184;-66
2022/09/17 01:14:04;;;;;;;14.90;2.92;;;;;;;;;;4996753;28;92385;-66
2022/09/17 01:16:36;;;;;;;19.52;3.05;;;;;;;;;;4996734;28;93966;-66
2022/09/17 01:19:22;;;;;;;17.20;2.95;;;;;;;;;;4997063;28;92643;-66
2022/09/17 01:21:56;;;;;;;23.10;3.72;;;;;;;;;;4990329;28;93187;-66
2022/09/17 01:24:40;;;;;;;19.00;2.83;;;;;;;;;;5026254;28;93448;-67
2022/09/17 01:27:16;;;;;;;12.52;2.50;;;;;;;;;;4993905;28;92469;-66
2022/09/17 01:29:58;;;;;;;16.55;2.67;;;;;;;;;;5010329;28;93167;-67
2022/09/17 01:32:32;;;;;;;15.82;2.40;;;;;;;;;;4999910;28;93357;-66
2022/09/17 01:35:05;;;;;;;17.42;2.15;;;;;;;;;;4994431;28;92661;-66
2022/09/17 01:37:50;;;;;;;22.05;2.92;;;;;;;;;;4997907;28;94867;-67
2022/09/17 01:40:22;;;;;;;15.93;2.47;;;;;;;;;;4992518;28;94672;-66
2022/09/17 01:42:48;;;;;;;17.55;2.47;;;;;;;;;;4996325;28;93364;-66
2022/09/17 01:45:17;;;;;;;21.88;3.00;;;;;;;;;;4997734;28;93386;-66
2022/09/17 01:47:46;;;;;;;17.42;2.13;;;;;;;;;;4984627;28;92409;-66
2022/09/17 01:50:19;;;;;;;24.58;3.00;;;;;;;;;;4992164;28;94226;-66
2022/09/17 01:52:47;;;;;;;14.57;2.17;;;;;;;;;;4996529;28;94348;-66
2022/09/17 01:55:14;;;;;;;13.10;2.30;;;;;;;;;;4996494;28;91627;-66
2022/09/17 01:57:46;;;;;;;13.27;3.08;;;;;;;;;;4996965;28;92433;-66
2022/09/17 02:00:16;;;;;;;14.35;2.70;;;;;;;;;;4998858;28;93399;-66
2022/09/17 02:02:45;;;;;;;20.98;2.70;;;;;;;;;;4994164;28;95589;-66
2022/09/17 02:05:15;;;;;;;13.63;2.00;;;;;;;;;;4996260;28;93413;-66
2022/09/17 02:07:44;;;;;;;15.75;2.65;;;;;;;;;;4996586;28;92416;-66
2022/09/17 02:10:12;;;;;;;17.67;3.13;;;;;;;;;;4995903;28;93176;-66
2022/09/17 02:12:41;;;;;;;20.45;2.65;;;;;;;;;;4995987;28;93558;-67
2022/09/17 02:15:10;;;;;;;13.48;1.92;;;;;;;;;;4995364;28;92615;-66
2022/09/17 02:17:45;;;;;;;13.43;1.92;;;;;;;;;;4994801;28;93115;-67
2022/09/17 02:20:12;;;;;;;18.60;2.03;;;;;;;;;;5002808;28;92727;-66
2022/09/17 02:22:42;;;;;;;15.30;2.17;;;;;;;;;;5027573;28;93308;-66
2022/09/17 02:25:11;;;;;;;13.25;2.78;;;;;;;;;;4995679;28;93893;-66
2022/09/17 02:27:44;;;;;;;15.00;2.67;;;;;;;;;;4993795;28;94817;-66
2022/09/17 02:30:11;;;;;;;13.55;2.08;;;;;;;;;;4996061;28;95552;-66
2022/09/17 02:32:37;;;;;;;12.70;1.90;;;;;;;;;;4995612;28;93449;-66
2022/09/17 02:35:05;;;;;;;17.38;1.85;;;;;;;;;;4996680;28;92567;-66
2022/09/17 02:37:31;;;;;;;14.40;2.20;;;;;;;;;;4991215;28;94397;-66
2022/09/17 02:39:57;;;;;;;18.17;2.47;;;;;;;;;;4994262;28;93568;-65
2022/09/17 02:42:50;;;;;;;13.05;1.90;;;;;;;;;;4994695;28;93194;-66
2022/09/17 02:45:33;;;;;;;14.40;2.38;;;;;;;;;;4982172;28;92844;-67
2022/09/17 02:48:16;;;;;;;7.45;1.67;;;;;;;;;;4983463;28;92842;-66
2022/09/17 02:50:58;;;;;;;7.97;2.20;;;;;;;;;;5027349;28;93109;-66
2022/09/17 02:53:27;;;;;;;16.42;3.13;;;;;;;;;;4994391;28;97090;-66
2022/09/17 02:56:06;;;;;;;11.65;1.70;;;;;;;;;;4995623;28;92483;-66
2022/09/17 02:58:36;;;;;;;16.80;2.22;;;;;;;;;;4996122;28;93525;-66
2022/09/17 03:01:06;;;;;;;10.88;1.70;;;;;;;;;;5024440;28;94735;-66
2022/09/17 03:03:34;;;;;;;15.93;1.88;;;;;;;;;;5018170;28;92529;-66
2022/09/17 03:06:01;;;;;;;8.05;1.50;;;;;;;;;;4999546;28;94632;-66
2022/09/17 03:08:31;;;;;;;14.23;2.55;;;;;;;;;;4983003;28;92570;-67
2022/09/17 03:10:57;;;;;;;5.43;1.50;;;;;;;;;;5026956;28;93168;-67
2022/09/17 03:13:23;;;;;;;9.45;2.00;;;;;;;;;;4995181;28;93715;-67
2022/09/17 03:15:49;;;;;;;14.48;1.98;;;;;;;;;;5026929;27;92418;-66
2022/09/17 03:18:16;;;;;;;17.20;2.47;;;;;;;;;;5024092;28;94961;-67
2022/09/17 03:20:42;;;;;;;15.65;2.08;;;;;;;;;;4997733;28;93703;-66
2022/09/17 03:23:08;;;;;;;7.95;1.70;;;;;;;;;;4996701;28;92444;-66
2022/09/17 03:25:34;;;;;;;15.07;2.03;;;;;;;;;;4991791;28;93106;-66
2022/09/17 03:28:01;;;;;;;18.77;2.70;;;;;;;;;;4998208;28;93454;-66
2022/09/17 03:30:27;;;;;;;15.65;1.98;;;;;;;;;;5012035;28;93450;-66
2022/09/17 03:32:53;;;;;;;10.98;1.90;;;;;;;;;;4995390;28;93796;-66
2022/09/17 03:35:20;;;;;;;13.63;1.80;;;;;;;;;;4997044;28;91878;-66
2022/09/17 03:37:46;;;;;;;13.98;1.83;;;;;;;;;;4994092;28;93999;-66
2022/09/17 03:40:12;;;;;;;12.73;2.30;;;;;;;;;;4994983;28;93764;-66
2022/09/17 03:42:39;;;;;;;13.95;2.13;;;;;;;;;;4986632;28;94813;-67
2022/09/17 03:45:05;;;;;;;8.80;1.98;;;;;;;;;;5003702;28;95587;-65
2022/09/17 03:47:31;;;;;;;15.43;1.83;;;;;;;;;;5004863;28;93482;-66
2022/09/17 03:49:58;;;;;;;12.27;1.77;;;;;;;;;;4997661;28;92552;-66
2022/09/17 03:52:24;;;;;;;9.27;1.88;;;;;;;;;;4997701;28;93356;-66
2022/09/17 03:54:50;;;;;;;10.93;1.92;;;;;;;;;;4995801;28;92416;-66
2022/09/17 03:57:16;;;;;;;13.73;2.20;;;;;;;;;;4993727;28;93197;-66
2022/09/17 03:59:42;;;;;;;10.25;1.60;;;;;;;;;;4980186;28;92637;-66
2022/09/17 04:02:09;;;;;;;17.00;2.13;;;;;;;;;;4994040;28;92494;-66
2022/09/17 04:04:35;;;;;;;11.15;1.52;;;;;;;;;;4991754;28;93294;-67
2022/09/17 04:07:01;;;;;;;16.77;2.53;;;;;;;;;;4991610;28;95739;-66
2022/09/17 04:09:28;;;;;;;5.95;1.70;;;;;;;;;;4993690;28;92589;-66
2022/09/17 04:11:55;;;;;;;21.02;3.70;;;;;;;;;;4997278;28;93358;-66
2022/09/17 04:14:21;;;;;;;13.88;2.22;;;;;;;;;;4989355;28;92548;-66
2022/09/17 04:16:47;;;;;;;12.75;2.38;;;;;;;;;;4993900;28;94240;-66
2022/09/17 04:19:14;;;;;;;11.32;1.80;;;;;;;;;;4996580;28;92656;-67
2022/09/17 04:21:40;;;;;;;13.18;2.17;;;;;;;;;;4993723;28;92517;-66
2022/09/17 04:24:06;;;;;;;22.13;2.47;;;;;;;;;;4993982;28;93159;-67
2022/09/17 04:26:33;;;;;;;13.10;2.75;;;;;;;;;;4993975;28;94055;-67
2022/09/17 04:28:59;;;;;;;15.90;1.98;;;;;;;;;;4993992;28;92443;-67
2022/09/17 04:31:26;;;;;;;22.50;1.83;;;;;;;;;;4994711;28;94833;-67
2022/09/17 04:33:52;;;;;;;12.65;2.50;;;;;;;;;;4993051;28;92521;-67
2022/09/17 04:36:18;;;;;;;18.88;1.80;;;;;;;;;;4994552;28;94894;-66
2022/09/17 04:38:48;;;;;;;16.48;1.92;;;;;;;;;;4994007;28;93725;-66
2022/09/17 04:41:14;;;;;;;8.55;1.60;;;;;;;;;;4995109;28;92813;-66
2022/09/17 04:43:41;;;;;;;12.45;2.08;;;;;;;;;;4994058;28;94287;-65
2022/09/17 04:46:07;;;;;;;16.42;2.20;;;;;;;;;;5000921;28;93367;-65
2022/09/17 04:48:33;;;;;;;6.45;1.30;;;;;;;;;;4993808;28;91710;-65
2022/09/17 04:50:59;;;;;;;8.32;1.70;;;;;;;;;;4993311;28;92447;-65
2022/09/17 04:53:26;;;;;;;11.93;1.95;;;;;;;;;;5028177;28;94083;-65
2022/09/17 04:55:52;;;;;;;9.75;1.58;;;;;;;;;;4993295;28;94868;-65
2022/09/17 04:58:18;;;;;;;11.63;1.92;;;;;;;;;;5024622;28;94013;-66
2022/09/17 05:00:44;;;;;;;11.73;1.58;;;;;;;;;;4993200;28;94019;-65
2022/09/17 05:03:11;;;;;;;14.75;2.00;;;;;;;;;;5022083;28;93249;-66
2022/09/17 05:05:37;;;;;;;12.80;2.25;;;;;;;;;;4993347;28;93429;-66
2022/09/17 05:08:03;;;;;;;15.43;1.88;;;;;;;;;;4993299;28;92515;-66
2022/09/17 05:10:29;;;;;;;16.00;1.75;;;;;;;;;;4994415;28;93146;-66
2022/09/17 05:12:56;;;;;;;8.35;1.60;;;;;;;;;;5025308;28;93660;-65
2022/09/17 05:15:23;;;;;;;10.43;1.48;;;;;;;;;;4997285;28;92428;-65
2022/09/17 05:17:49;;;;;;;8.13;1.40;;;;;;;;;;4996567;28;93928;-65
2022/09/17 05:20:16;;;;;;;6.72;1.85;;;;;;;;;;4992731;28;94900;-65
2022/09/17 05:22:43;;;;;;;7.70;1.50;;;;;;;;;;4990496;28;95526;-65
2022/09/17 05:25:10;;;;;;;11.35;1.50;;;;;;;;;;4985984;28;93446;-65
2022/09/17 05:27:37;;;;;;;10.52;1.90;;;;;;;;;;4990726;28;92522;-66
2022/09/17 05:30:04;;;;;;;5.13;1.25;;;;;;;;;;5002362;28;93105;-65
2022/09/17 05:32:30;;;;;;;5.90;1.23;;;;;;;;;;4995710;28;93415;-66
2022/09/17 05:34:56;;;;;;;8.55;1.10;;;;;;;;;;4993654;28;92481;-66
2022/09/17 05:37:23;;;;;;;6.43;1.30;;;;;;;;;;5009901;28;93280;-66
2022/09/17 05:39:49;;;;;;;7.32;1.45;;;;;;;;;;5005808;28;92419;-65
2022/09/17 05:42:15;;;;;;;9.75;2.45;;;;;;;;;;4996062;28;94503;-65
2022/09/17 05:44:41;;;;;;;7.30;1.80;;;;;;;;;;4976618;28;96888;-65
2022/09/17 05:47:08;;;;;;;8.38;1.40;;;;;;;;;;4997158;28;92465;-65
2022/09/17 05:49:34;;;;;;;10.48;1.73;;;;;;;;;;4992863;28;94470;-66
2022/09/17 05:52:02;;;;;;;7.10;1.20;;;;;;;;;;4992763;28;93392;-65
2022/09/17 05:54:28;;;;;;;9.15;1.33;;;;;;;;;;4993603;28;92792;-65
2022/09/17 05:56:55;;;;;;;4.82;1.42;;;;;;;;;;4989580;28;93234;-65
2022/09/17 05:59:21;;;;;;;8.75;1.50;;;;;;;;;;4977550;28;93455;-65
2022/09/17 06:01:47;;;;;;;8.98;1.52;;;;;;;;;;4980483;28;93072;-65
2022/09/17 06:04:14;;;;;;;8.73;1.70;;;;;;;;;;5006217;28;92495;-65
2022/09/17 06:06:40;;;;;;;9.40;1.20;;;;;;;;;;4999822;28;92425;-65
2022/09/17 06:09:07;;;;;;;6.78;1.30;;;;;;;;;;5009873;28;94838;-65
2022/09/17 06:11:33;;;;;;;7.53;1.20;;;;;;;;;;5017008;28;93431;-66
2022/09/17 06:14:00;;;;;;;7.03;1.25;;;;;;;;;;5005841;28;92488;-65
2022/09/17 06:16:26;;;;;;;10.60;1.40;;;;;;;;;;4993152;28;93383;-64
2022/09/17 06:18:53;;;;;;;13.27;1.60;;;;;;;;;;4996922;28;95132;-64
2022/09/17 06:21:22;;;;;;;11.35;1.95;;;;;;;;;;5016240;28;92452;-65
2022/09/17 06:23:49;;;;;;;8.25;1.13;;;;;;;;;;5016561;28;93763;-65
2022/09/17 06:26:15;;;;;;;6.55;1.63;;;;;;;;;;5016938;28;91658;-64
2022/09/17 06:28:42;;;;;;;8.05;1.52;;;;;;;;;;5016565;28;92741;-63
2022/09/17 06:31:09;;;;;;;9.95;1.40;;;;;;;;;;5001736;28;92569;-64
2022/09/17 06:33:35;;;;;;;11.82;1.60;;;;;;;;;;4975753;28;95572;-64
2022/09/17 06:36:03;;;;;;;10.02;1.65;;;;;;;;;;5018670;28;95978;-64
2022/09/17 06:38:35;;;;;;;9.68;1.48;;;;;;;;;;4994046;28;93938;-63
2022/09/17 06:41:02;;;;;;;7.68;1.23;;;;;;;;;;5012668;28;92406;-64
2022/09/17 06:43:28;;;;;;;6.90;1.20;;;;;;;;;;4994932;28;93434;-64
2022/09/17 06:45:56;;;;;;;12.13;1.42;;;;;;;;;;4996360;28;92746;-63
2022/09/17 06:48:23;;;;;;;11.02;1.67;;;;;;;;;;5001815;28;93110;-63
2022/09/17 06:50:50;;;;;;;9.43;2.10;;;;;;;;;;4989358;28;93007;-63
2022/09/17 06:53:16;;;;;;;7.82;1.13;;;;;;;;;;4986214;28;92492;-64
2022/09/17 06:55:42;;;;;;;11.95;1.63;;;;;;;;;;4996450;28;93482;-64
2022/09/17 06:58:09;;;;;;;9.63;1.35;;;;;;;;;;5003661;28;95873;-63
2022/09/17 07:00:35;;;;;;;10.13;1.58;;;;;;;;;;4995890;28;92384;-64
2022/09/17 07:03:01;;;;;;;8.13;1.40;;;;;;;;;;4998980;28;93213;-64
2022/09/17 07:05:28;;;;;;;6.88;1.40;;;;;;;;;;4995012;28;92407;-64
2022/09/17 07:07:54;;;;;;;7.97;0.93;;;;;;;;;;4995732;28;93115;-63
2022/09/17 07:10:25;;;;;;;5.05;1.52;;;;;;;;;;4989550;28;93756;-63
2022/09/17 07:12:52;;;;;;;9.65;1.73;;;;;;;;;;4992525;28;92437;-63
2022/09/17 07:15:18;;;;;;;12.60;1.65;;;;;;;;;;4995732;28;94164;-64
2022/09/17 07:17:45;;;;;;;21.42;1.90;;;;;;;;;;4981304;28;93431;-64
2022/09/17 07:20:12;;;;;;;9.48;1.90;;;;;;;;;;5024522;28;93821;-63
2022/09/17 07:22:38;;;;;;;8.82;1.33;;;;;;;;;;4994452;28;94876;-63
2022/09/17 07:25:05;;;;;;;12.80;1.80;;;;;;;;;;4997671;28;92448;-64
2022/09/17 07:27:31;;;;;;;9.07;1.40;;;;;;;;;;4979815;28;93137;-64
2022/09/17 07:29:57;;;;;;;7.55;1.25;;;;;;;;;;4995186;28;94389;-64
2022/09/17 07:32:24;;;;;;;11.35;1.40;;;;;;;;;;4989855;28;92473;-63
2022/09/17 07:34:50;;;;;;;12.77;1.50;;;;;;;;;;4992638;28;93174;-64
2022/09/17 07:37:17;;;;;;;8.65;1.50;;;;;;;;;;4993639;28;92508;-63
2022/09/17 07:39:43;;;;;;;8.40;1.55;;;;;;;;;;4995920;28;91701;-63
2022/09/17 07:42:09;;;;;;;6.47;1.08;;;;;;;;;;4995036;28;93495;-63
2022/09/17 07:44:36;;;;;;;7.95;1.25;;;;;;;;;;4994027;28;94484;-63
2022/09/17 07:47:02;;;;;;;9.35;1.30;;;;;;;;;;4996555;28;95049;-63
2022/09/17 07:49:30;;;;;;;6.65;1.45;;;;;;;;;;4994889;28;93561;-63
2022/09/17 07:51:56;;;;;;;7.97;1.13;;;;;;;;;;4995469;28;92388;-63
2022/09/17 07:54:22;;;;;;;5.05;1.25;;;;;;;;;;4995040;28;94219;-63
2022/09/17 07:56:49;;;;;;;8.65;1.38;;;;;;;;;;4994217;28;93592;-63
2022/09/17 07:59:15;;;;;;;10.90;1.48;;;;;;;;;;4993236;28;92379;-65
2022/09/17 08:01:41;;;;;;;10.25;1.38;;;;;;;;;;4988043;28;93973;-64
2022/09/17 08:04:08;;;;;;;7.80;1.10;;;;;;;;;;4985026;28;92723;-63
2022/09/17 08:06:37;;;;;;;7.95;1.30;;;;;;;;;;4986811;28;92971;-64
2022/09/17 08:09:03;;;;;;;10.25;1.42;;;;;;;;;;4990875;28;93458;-64
2022/09/17 08:11:30;;;;;;;8.45;1.67;;;;;;;;;;4992622;28;95671;-63
2022/09/17 08:14:16;;;;;;;6.30;1.00;;;;;;;;;;4995015;28;95127;-64
2022/09/17 08:16:44;;;;;;;10.55;1.50;;;;;;;;;;4994050;28;93486;-63
2022/09/17 08:19:10;;;;;;;9.32;1.45;;;;;;;;;;4992585;28;93630;-63
2022/09/17 08:21:36;;;;;;;8.75;1.40;;;;;;;;;;4995442;28;93459;-63
2022/09/17 08:24:03;;;;;;;13.40;1.35;;;;;;;;;;4993253;28;94888;-64
2022/09/17 08:26:29;;;;;;;10.40;1.27;;;;;;;;;;4991628;28;92619;-63
2022/09/17 08:28:56;;;;;;;8.65;1.35;;;;;;;;;;4997204;28;93153;-64
2022/09/17 08:31:23;;;;;;;12.70;1.33;;;;;;;;;;4995085;28;92431;-66
2022/09/17 08:33:50;;;;;;;9.10;1.20;;;;;;;;;;4995346;28;94447;-62
2022/09/17 08:36:17;;;;;;;7.72;0.90;;;;;;;;;;4992254;28;95818;-63
2022/09/17 08:38:44;;;;;;;10.40;1.02;;;;;;;;;;4986351;28;93036;-63
2022/09/17 08:41:10;;;;;;;12.60;1.58;;;;;;;;;;4990883;28;92485;-63
2022/09/17 08:43:49;;;;;;;10.07;1.63;;;;;;;;;;4992501;28;93854;-63
2022/09/17 08:46:16;;;;;;;8.43;1.65;;;;;;;;;;4994890;28;92451;-63
2022/09/17 08:48:47;;;;;;;7.90;1.35;;;;;;;;;;4993357;28;93461;-63
2022/09/17 08:51:22;;;;;;;5.15;1.25;;;;;;;;;;4997087;28;94633;-64
2022/09/17 08:54:01;;;;;;;3.67;1.25;;;;;;;;;;4985610;28;93056;-63
2022/09/17 08:56:30;;;;;;;5.80;1.42;;;;;;;;;;4992111;28;93422;-64
2022/09/17 08:59:07;;;;;;;8.13;1.10;;;;;;;;;;4990878;28;92825;-64
2022/09/17 09:01:40;;;;;;;4.20;0.90;;;;;;;;;;4989532;28;94805;-63
2022/09/17 09:04:09;;;;;;;6.82;1.20;;;;;;;;;;4993781;28;93462;-63
2022/09/17 09:06:40;;;;;;;3.80;1.02;;;;;;;;;;4993887;28;92516;-63
2022/09/17 09:09:12;;;;;;;6.40;1.10;;;;;;;;;;4994617;28;93480;-64
2022/09/17 09:11:39;;;;;;;4.20;0.98;;;;;;;;;;4996411;28;95119;-64
2022/09/17 09:14:22;;;;;;;5.13;0.93;;;;;;;;;;5002888;28;92442;-63
2022/09/17 09:16:51;;;;;;;4.75;1.42;;;;;;;;;;4986444;28;93437;-64
2022/09/17 09:19:22;;;;;;;7.10;0.88;;;;;;;;;;4985419;28;92173;-64
2022/09/17 09:22:08;;;;;;;6.45;1.00;;;;;;;;;;4994166;28;92438;-63
2022/09/17 09:24:34;;;;;;;8.45;1.45;;;;;;;;;;5021988;28;93447;-64
2022/09/17 09:27:15;;;;;;;6.13;1.10;;;;;;;;;;4991053;28;95684;-64
2022/09/17 09:29:47;;;;;;;7.15;1.30;;;;;;;;;;4994775;28;95447;-63
2022/09/17 09:32:52;;;;;;;6.97;1.40;;;;;;;;;;4994714;28;95196;-64
2022/09/17 09:35:20;;;;;;;8.60;1.20;;;;;;;;;;4941776;28;93460;-64
2022/09/17 09:37:56;;;;;;;4.82;1.00;;;;;;;;;;4946064;28;92982;-64
2022/09/17 09:40:43;;;;;;;11.15;1.83;;;;;;;;;;4967033;28;92657;-63
2022/09/17 09:43:27;;;;;;;6.75;1.15;;;;;;;;;;4956601;28;93983;-64
2022/09/17 09:46:27;;;;;;;11.02;1.38;;;;;;;;;;4942591;28;94428;-63
2022/09/17 09:48:53;;;;;;;;;;;;;;;;;;4955169;28;92525;-63
2022/09/17 09:51:26;;;;;;;7.05;1.20;;;;;;;;;;4954179;28;124147;-63
2022/09/17 09:54:02;;;;;;;3.97;1.30;;;;;;;;;;4951741;28;95834;-64
2022/09/17 09:56:33;;;;;;;7.80;1.38;;;;;;;;;;4954082;28;92710;-64
2022/09/17 09:59:00;;;;;;;10.23;1.60;;;;;;;;;;4954365;28;95954;-63
2022/09/17 10:01:27;;;;;;;11.07;1.27;;;;;;;;;;4958746;28;94328;-64
2022/09/17 10:03:57;;;;;;;8.85;1.50;;;;;;;;;;4955224;28;93235;-63
2022/09/17 10:06:23;;;;;;;14.07;2.13;;;;;;;;;;4966879;28;93401;-64
2022/09/17 10:08:55;;;;;;;11.77;1.38;;;;;;;;;;4990023;28;94635;-63
2022/09/17 10:11:23;;;;;;;7.70;1.60;;;;;;;;;;4986930;28;93339;-64
2022/09/17 10:13:49;;;;;;;8.57;1.42;;;;;;;;;;4985011;28;93375;-64
2022/09/17 10:16:19;;;;;;;5.32;1.33;;;;;;;;;;4994507;28;92473;-64
2022/09/17 10:18:46;;;;;;;5.32;0.90;;;;;;;;;;4995601;28;94999;-63
2022/09/17 10:21:33;;;;;;;6.95;1.10;;;;;;;;;;4988176;28;93450;-64
2022/09/17 10:24:01;;;;;;;3.42;1.05;;;;;;;;;;4991278;28;93431;-64
2022/09/17 10:26:29;;;;;;;6.65;1.17;;;;;;;;;;4981628;28;94467;-64
2022/09/17 10:28:57;;;;;;;7.85;1.50;;;;;;;;;;5000048;28;93279;-64
2022/09/17 10:31:23;;;;;;;10.80;1.23;;;;;;;;;;4999385;28;93193;-64
2022/09/17 10:33:51;;;;;;;10.80;1.80;;;;;;;;;;4995470;28;93505;-64
2022/09/17 10:36:34;;;;;;;10.82;1.48;;;;;;;;;;4990497;28;91894;-64
2022/09/17 10:39:18;;;;;;;5.28;1.10;;;;;;;;;;4993730;28;92795;-64
2022/09/17 10:41:54;;;;;;;10.25;1.48;;;;;;;;;;4995544;28;93465;-64
2022/09/17 10:44:21;;;;;;;12.13;1.35;;;;;;;;;;4998161;28;94781;-64
2022/09/17 10:46:48;;;;;;;8.85;1.95;;;;;;;;;;4986529;28;93394;-64
2022/09/17 10:49:26;;;;;;;7.68;1.40;;;;;;;;;;4975814;28;92465;-64
2022/09/17 10:52:02;;;;;;;11.23;1.77;;;;;;;;;;4991500;28;93072;-64
2022/09/17 10:54:47;;;;;;;10.40;2.00;;;;;;;;;;4991633;28;93811;-64
2022/09/17 10:57:18;;;;;;;4.85;1.20;;;;;;;;;;4996322;28;92513;-64
2022/09/17 10:59:51;;;;;;;8.57;1.55;;;;;;;;;;4980319;28;93106;-64
2022/09/17 11:02:24;;;;;;;6.15;1.40;;;;;;;;;;4991769;28;92688;-64
2022/09/17 11:05:03;;;;;;;8.10;2.13;;;;;;;;;;4994658;28;92452;-64
2022/09/17 11:07:40;;;;;;;3.30;1.20;;;;;;;;;;4996834;28;93435;-64
2022/09/17 11:10:10;;;;;;;6.07;1.48;;;;;;;;;;4992087;28;94806;-65
2022/09/17 11:12:40;;;;;;;6.70;1.40;;;;;;;;;;4996103;28;96201;-65
2022/09/17 11:15:17;;;;;;;10.20;2.15;;;;;;;;;;4994523;28;92583;-66
2022/09/17 11:17:51;;;;;;;8.93;2.17;;;;;;;;;;4992239;28;92471;-64
2022/09/17 11:20:36;;;;;;;9.98;1.90;;;;;;;;;;4994680;28;94783;-64
2022/09/17 11:23:20;;;;;;;6.93;2.10;;;;;;;;;;4994900;28;93760;-64
2022/09/17 11:26:06;;;;;;;7.55;1.90;;;;;;;;;;4993676;28;92624;-65
2022/09/17 11:28:50;;;;;;;10.88;1.90;;;;;;;;;;4990738;28;93085;-64
2022/09/17 11:31:35;;;;;;;11.05;2.17;;;;;;;;;;4995574;28;94283;-65
2022/09/17 11:34:22;;;;;;;12.23;2.08;;;;;;;;;;4995520;28;94842;-65
2022/09/17 11:37:12;;;;;;;6.90;1.73;;;;;;;;;;5021795;28;95784;-64
2022/09/17 11:39:51;;;;;;;10.20;1.70;;;;;;;;;;5003817;28;92538;-64
2022/09/17 11:42:19;;;;;;;8.85;1.90;;;;;;;;;;5005640;28;93328;-66
2022/09/17 11:44:50;;;;;;;10.85;1.92;;;;;;;;;;4995237;28;93398;-65
2022/09/17 11:47:19;;;;;;;12.32;2.03;;;;;;;;;;4992097;28;92450;-65
2022/09/17 11:49:49;;;;;;;7.90;1.77;;;;;;;;;;4984521;28;93376;-64
2022/09/17 11:52:21;;;;;;;10.25;1.77;;;;;;;;;;4973602;28;93678;-64
2022/09/17 11:54:53;;;;;;;14.07;2.20;;;;;;;;;;4978603;28;91711;-65
2022/09/17 11:57:39;;;;;;;5.80;1.50;;;;;;;;;;4973721;28;92666;-64
2022/09/17 12:00:11;;;;;;;13.32;2.38;;;;;;;;;;4974999;28;92583;-64
2022/09/17 12:02:42;;;;;;;13.40;2.00;;;;;;;;;;4973755;28;94794;-64
2022/09/17 12:05:15;;;;;;;10.05;2.10;;;;;;;;;;4973186;28;93830;-64
2022/09/17 12:07:48;;;;;;;9.02;1.95;;;;;;;;;;4975050;28;92397;-64
2022/09/17 12:10:17;;;;;;;14.02;2.03;;;;;;;;;;4975093;28;93102;-65
2022/09/17 12:12:51;;;;;;;8.20;1.85;;;;;;;;;;4974788;28;93428;-64
2022/09/17 12:15:20;;;;;;;12.93;2.05;;;;;;;;;;4982546;28;92459;-64
2022/09/17 12:17:51;;;;;;;15.60;2.13;;;;;;;;;;4997715;28;93508;-64
2022/09/17 12:20:37;;;;;;;;;;;;;;;;;;4996100;28;91640;-64
2022/09/17 12:23:09;;;;;;;10.43;1.48;;;;;;;;;;4995579;28;122558;-64
2022/09/17 12:25:51;;;;;;;7.28;1.85;;;;;;;;;;4993801;28;93466;-64
2022/09/17 12:28:23;;;;;;;5.50;1.30;;;;;;;;;;4991834;28;94894;-64
2022/09/17 12:30:58;;;;;;;6.38;2.10;;;;;;;;;;4994908;28;92331;-66
2022/09/17 12:33:30;;;;;;;10.90;1.50;;;;;;;;;;4994471;28;93451;-65
2022/09/17 12:35:57;;;;;;;10.38;1.73;;;;;;;;;;4994895;28;92469;-64
2022/09/17 12:38:31;;;;;;;14.73;1.58;;;;;;;;;;4994259;28;93335;-64
2022/09/17 12:41:13;;;;;;;7.18;1.77;;;;;;;;;;4996112;28;93406;-65
2022/09/17 12:43:55;;;;;;;13.35;2.05;;;;;;;;;;4994719;28;94427;-65
2022/09/17 12:46:37;;;;;;;10.75;1.67;;;;;;;;;;4993952;28;92731;-65
2022/09/17 12:49:28;;;;;;;5.97;1.58;;;;;;;;;;4994069;28;92511;-64
2022/09/17 12:51:58;;;;;;;12.25;1.88;;;;;;;;;;4994642;28;93192;-64
2022/09/17 12:54:33;;;;;;;7.63;1.23;;;;;;;;;;4992701;28;96363;-64
2022/09/17 12:57:09;;;;;;;11.25;2.38;;;;;;;;;;4993005;28;92559;-64
2022/09/17 12:59:39;;;;;;;8.25;2.38;;;;;;;;;;4993983;28;93662;-64
2022/09/17 13:02:15;;;;;;;7.60;1.80;;;;;;;;;;4997188;28;93507;-64
2022/09/17 13:04:42;;;;;;;13.43;2.15;;;;;;;;;;4994303;28;93328;-64
2022/09/17 13:07:32;;;;;;;15.18;2.33;;;;;;;;;;4993985;28;93407;-64
2022/09/17 13:10:17;;;;;;;10.77;2.17;;;;;;;;;;4992763;28;92551;-65
2022/09/17 13:12:43;;;;;;;13.95;1.83;;;;;;;;;;4998257;28;93148;-64
2022/09/17 13:15:27;;;;;;;10.80;1.88;;;;;;;;;;4996567;28;94540;-64
2022/09/17 13:17:53;;;;;;;6.28;1.50;;;;;;;;;;4997796;28;92623;-64
2022/09/17 13:20:47;;;;;;;8.57;1.63;;;;;;;;;;4995294;28;94819;-64
2022/09/17 13:23:14;;;;;;;8.10;1.42;;;;;;;;;;4997665;28;93421;-64
2022/09/17 13:25:51;;;;;;;10.32;2.13;;;;;;;;;;5000151;28;92421;-65
2022/09/17 13:28:18;;;;;;;9.52;1.63;;;;;;;;;;5012499;28;93421;-64
2022/09/17 13:30:54;;;;;;;9.75;2.15;;;;;;;;;;4997254;28;92489;-64
2022/09/17 13:33:38;;;;;;;12.25;2.05;;;;;;;;;;4997360;28;93130;-64
2022/09/17 13:36:25;;;;;;;9.88;2.22;;;;;;;;;;4997243;28;93389;-64
2022/09/17 13:38:51;;;;;;;10.55;2.20;;;;;;;;;;4996033;28;92672;-66
2022/09/17 13:41:19;;;;;;;18.15;2.28;;;;;;;;;;4997494;28;92721;-64
2022/09/17 13:43:45;;;;;;;17.80;2.30;;;;;;;;;;4995954;28;95152;-64
2022/09/17 13:46:15;;;;;;;18.45;2.90;;;;;;;;;;4994837;28;94878;-64
2022/09/17 13:48:48;;;;;;;10.50;2.03;;;;;;;;;;4999837;28;95004;-64
2022/09/17 13:51:29;;;;;;;14.35;2.25;;;;;;;;;;4997174;28;92397;-64
2022/09/17 13:53:56;;;;;;;14.05;2.05;;;;;;;;;;4996996;28;93402;-64
2022/09/17 13:56:35;;;;;;;8.07;1.58;;;;;;;;;;4997080;28;93300;-64
2022/09/17 13:59:06;;;;;;;4.07;1.20;;;;;;;;;;4997052;28;92513;-63
2022/09/17 14:01:51;;;;;;;5.78;1.70;;;;;;;;;;4997445;28;94488;-64
2022/09/17 14:04:34;;;;;;;9.25;1.65;;;;;;;;;;4997279;28;92666;-64
2022/09/17 14:07:20;;;;;;;8.73;1.52;;;;;;;;;;4996472;28;92353;-64
2022/09/17 14:09:49;;;;;;;6.85;1.55;;;;;;;;;;4997093;28;93057;-64
2022/09/17 14:12:34;;;;;;;13.68;1.67;;;;;;;;;;4997887;28;97274;-64
2022/09/17 14:15:00;;;;;;;15.52;1.70;;;;;;;;;;4996876;28;95752;-64
2022/09/17 14:17:45;;;;;;;11.20;1.98;;;;;;;;;;4996933;28;94514;-63
2022/09/17 14:20:11;;;;;;;13.57;1.95;;;;;;;;;;4996658;28;92486;-64
2022/09/17 14:22:39;;;;;;;8.50;1.63;;;;;;;;;;4995377;28;93305;-64
2022/09/17 14:25:13;;;;;;;11.45;2.05;;;;;;;;;;4994550;28;93907;-64
2022/09/17 14:27:54;;;;;;;12.13;1.88;;;;;;;;;;4996751;28;92368;-64
2022/09/17 14:30:21;;;;;;;9.57;1.70;;;;;;;;;;4995603;28;93399;-64
2022/09/17 14:32:47;;;;;;;8.88;1.70;;;;;;;;;;4996528;28;94821;-64
2022/09/17 14:35:19;;;;;;;7.80;1.70;;;;;;;;;;4999296;28;92227;-64
2022/09/17 14:37:47;;;;;;;8.82;1.55;;;;;;;;;;4994833;28;95876;-64
2022/09/17 14:40:15;;;;;;;14.13;2.30;;;;;;;;;;4996478;28;92416;-64
2022/09/17 14:42:42;;;;;;;12.90;1.92;;;;;;;;;;4996708;28;93892;-64
2022/09/17 14:45:14;;;;;;;14.43;2.25;;;;;;;;;;4996277;28;93249;-64
2022/09/17 14:47:41;;;;;;;11.63;2.08;;;;;;;;;;4995676;28;92438;-64
2022/09/17 14:50:20;;;;;;;5.25;1.60;;;;;;;;;;4996195;28;93137;-64
2022/09/17 14:52:47;;;;;;;14.48;2.20;;;;;;;;;;4995890;28;93751;-64
2022/09/17 14:55:28;;;;;;;6.22;1.65;;;;;;;;;;4996641;28;91744;-64
2022/09/17 14:57:55;;;;;;;12.23;2.38;;;;;;;;;;4999240;28;92956;-64